createdAt,value
2023-01-03T00:01:37.941Z,12.53
2023-01-03T00:04:07.022Z,12.13
2023-01-03T00:06:38.508Z,12.18
2023-01-03T00:09:09.861Z,12.43
2023-01-03T00:11:56.725Z,12.02
2023-01-03T00:14:27.907Z,10.93
2023-01-03T00:16:58.574Z,11.82
2023-01-03T00:19:31.879Z,10.23
2023-01-03T00:22:01.489Z,11.93
2023-01-03T00:24:30.181Z,10.95
2023-01-03T00:26:58.533Z,11.65
2023-01-03T00:29:27.464Z,9.63
2023-01-03T00:31:55.839Z,9.80
2023-01-03T00:34:24.839Z,11.02
2023-01-03T00:36:53.351Z,11.90
2023-01-03T00:39:23.832Z,9.77
2023-01-03T00:41:52.272Z,11.95
2023-01-03T00:44:21.414Z,11.55
2023-01-03T00:46:49.807Z,11.82
2023-01-03T00:49:18.465Z,12.68
2023-01-03T00:51:46.805Z,12.13
2023-01-03T00:54:16.406Z,12.98
2023-01-03T00:56:47.502Z,12.45
2023-01-03T00:59:17.552Z,12.82
2023-01-03T01:01:48.324Z,11.82
2023-01-03T01:04:19.645Z,12.90
2023-01-03T01:06:50.735Z,11.75
2023-01-03T01:11:50.120Z,10.23
2023-01-03T01:14:23.124Z,11.23
2023-01-03T01:16:54.278Z,10.60
2023-01-03T01:21:51.612Z,10.10
2023-01-03T01:24:20.523Z,11.13
2023-01-03T01:26:50.459Z,9.48
2023-01-03T01:29:19.297Z,10.45
2023-01-03T01:31:48.283Z,11.85
2023-01-03T01:34:17.647Z,11.93
2023-01-03T01:36:47.288Z,11.27
2023-01-03T01:39:18.236Z,11.70
2023-01-03T01:42:05.415Z,10.85
2023-01-03T01:44:49.194Z,12.25
2023-01-03T01:47:22.424Z,12.95
2023-01-03T01:49:53.446Z,11.02
2023-01-03T01:52:22.561Z,11.20
2023-01-03T01:54:53.196Z,11.05
2023-01-03T01:57:23.197Z,11.43
2023-01-03T01:59:53.186Z,11.63
2023-01-03T02:02:23.468Z,11.43
2023-01-03T02:04:55.038Z,12.30
2023-01-03T02:07:24.241Z,11.45
2023-01-03T02:09:55.672Z,11.57
2023-01-03T02:12:47.508Z,11.23
2023-01-03T02:15:33.936Z,12.10
2023-01-03T02:18:13.030Z,12.13
2023-01-03T02:21:01.061Z,12.25
2023-01-03T02:23:41.726Z,12.18
2023-01-03T02:26:34.970Z,12.27
2023-01-03T02:29:21.006Z,11.85
2023-01-03T02:31:55.076Z,11.90
2023-01-03T02:34:29.132Z,11.73
2023-01-03T02:37:07.577Z,11.93
2023-01-03T02:39:40.846Z,11.32
2023-01-03T02:42:30.084Z,11.40
2023-01-03T02:45:04.525Z,11.52
2023-01-03T02:47:39.222Z,11.95
2023-01-03T02:50:12.571Z,10.82
2023-01-03T02:52:42.688Z,12.27
2023-01-03T02:55:15.726Z,11.57
2023-01-03T02:57:49.255Z,13.20
2023-01-03T03:00:20.805Z,12.35
2023-01-03T03:02:53.405Z,12.85
2023-01-03T03:05:24.914Z,13.27
2023-01-03T03:07:54.029Z,14.50
2023-01-03T03:10:40.747Z,13.48
2023-01-03T03:13:15.098Z,14.20
2023-01-03T03:15:49.404Z,13.75
2023-01-03T03:18:21.161Z,13.20
2023-01-03T03:23:55.832Z,12.27
2023-01-03T03:26:27.540Z,11.00
2023-01-03T03:28:58.230Z,10.60
2023-01-03T03:31:32.576Z,11.10
2023-01-03T03:34:07.993Z,11.10
2023-01-03T03:36:43.136Z,11.65
2023-01-03T03:39:27.024Z,11.93
2023-01-03T03:42:15.884Z,11.60
2023-01-03T03:45:03.053Z,12.00
2023-01-03T03:47:39.377Z,11.43
2023-01-03T03:50:15.060Z,10.70
2023-01-03T03:52:47.351Z,11.98
2023-01-03T03:55:18.900Z,11.55
2023-01-03T04:00:19.838Z,10.98
2023-01-03T04:02:48.351Z,10.90
2023-01-03T04:05:22.672Z,11.77
2023-01-03T04:07:51.083Z,11.10
2023-01-03T04:10:21.196Z,11.55
2023-01-03T04:12:50.328Z,11.10
2023-01-03T04:15:19.341Z,11.48
2023-01-03T04:17:47.717Z,10.80
2023-01-03T04:20:16.419Z,10.25
2023-01-03T04:22:46.451Z,11.63
2023-01-03T04:25:15.115Z,10.85
2023-01-03T04:27:43.471Z,10.00
2023-01-03T04:30:13.221Z,10.68
2023-01-03T04:32:41.631Z,10.45
2023-01-03T04:35:10.843Z,10.35
2023-01-03T04:37:39.148Z,11.13
2023-01-03T04:40:10.704Z,10.50
2023-01-03T04:42:56.302Z,10.95
2023-01-03T04:45:25.174Z,10.55
2023-01-03T04:47:55.087Z,10.50
2023-01-03T04:50:24.403Z,11.23
2023-01-03T04:52:52.792Z,9.82
2023-01-03T04:55:23.038Z,10.38
2023-01-03T04:57:51.525Z,11.27
2023-01-03T05:00:20.259Z,10.10
2023-01-03T05:02:48.517Z,10.50
2023-01-03T05:05:17.475Z,10.30
2023-01-03T05:07:48.450Z,10.50
2023-01-03T05:10:16.981Z,11.40
2023-01-03T05:13:00.107Z,11.57
2023-01-03T05:15:29.142Z,11.25
2023-01-03T05:17:57.536Z,12.25
2023-01-03T05:20:43.361Z,12.35
2023-01-03T05:23:31.712Z,11.40
2023-01-03T05:26:00.587Z,11.75
2023-01-03T05:28:30.832Z,14.00
2023-01-03T05:31:00.638Z,12.65
2023-01-03T05:33:29.017Z,13.52
2023-01-03T05:35:58.342Z,12.80
2023-01-03T05:38:26.781Z,13.48
2023-01-03T05:40:55.425Z,12.70
2023-01-03T05:43:23.767Z,13.48
2023-01-03T05:45:54.480Z,14.13
2023-01-03T05:48:23.603Z,12.50
2023-01-03T05:50:52.949Z,13.20
2023-01-03T05:53:21.283Z,13.18
2023-01-03T05:55:50.038Z,14.18
2023-01-03T05:58:18.388Z,12.90
2023-01-03T06:00:47.060Z,14.30
2023-01-03T06:03:16.735Z,21.38
2023-01-03T06:05:50.142Z,16.23
2023-01-03T06:08:18.783Z,15.50
2023-01-03T06:10:47.764Z,17.23
2023-01-03T06:13:16.176Z,19.15
2023-01-03T06:16:05.775Z,19.45
2023-01-03T06:18:36.290Z,14.57
2023-01-03T06:21:05.522Z,12.68
2023-01-03T06:23:34.056Z,14.45
2023-01-03T06:26:04.638Z,13.32
2023-01-03T06:28:33.167Z,14.93
2023-01-03T06:31:02.472Z,13.27
2023-01-03T06:33:31.187Z,12.18
2023-01-03T06:36:05.301Z,13.43
2023-01-03T06:38:33.903Z,11.88
2023-01-03T06:41:02.949Z,13.32
2023-01-03T06:43:31.613Z,15.38
2023-01-03T06:46:18.672Z,13.45
2023-01-03T06:49:04.979Z,13.02
2023-01-03T06:51:53.236Z,13.70
2023-01-03T06:54:23.495Z,23.60
2023-01-03T06:56:53.404Z,25.85
2023-01-03T06:59:22.547Z,16.52
2023-01-03T07:01:52.706Z,15.30
2023-01-03T07:04:22.357Z,14.30
2023-01-03T07:06:52.915Z,14.50
2023-01-03T07:09:21.471Z,14.48
2023-01-03T07:11:50.466Z,14.25
2023-01-03T07:14:19.216Z,13.60
2023-01-03T07:16:49.545Z,12.50
2023-01-03T07:19:20.240Z,13.85
2023-01-03T07:21:48.987Z,13.07
2023-01-03T07:24:20.278Z,16.08
2023-01-03T07:26:49.237Z,13.45
2023-01-03T07:29:17.765Z,13.02
2023-01-03T07:31:46.339Z,12.80
2023-01-03T07:34:15.283Z,13.50
2023-01-03T07:36:43.791Z,12.07
2023-01-03T07:39:12.164Z,11.05
2023-01-03T07:41:59.575Z,11.75
2023-01-03T07:44:27.940Z,12.75
2023-01-03T07:46:56.982Z,11.52
2023-01-03T07:49:25.358Z,10.82
2023-01-03T07:51:54.143Z,15.95
2023-01-03T07:54:22.911Z,22.33
2023-01-03T07:56:53.019Z,16.73
2023-01-03T07:59:21.615Z,13.73
2023-01-03T08:01:50.735Z,13.48
2023-01-03T08:04:19.400Z,10.77
2023-01-03T08:06:49.343Z,10.57
2023-01-03T08:09:35.750Z,12.45
2023-01-03T08:12:24.579Z,11.38
2023-01-03T08:14:53.850Z,11.23
2023-01-03T08:17:22.851Z,10.00
2023-01-03T08:19:51.476Z,10.93
2023-01-03T08:22:20.582Z,9.70
2023-01-03T08:24:49.102Z,10.85
2023-01-03T08:27:19.479Z,9.52
2023-01-03T08:29:48.062Z,9.02
2023-01-03T08:32:17.220Z,8.00
2023-01-03T08:34:48.602Z,8.20
2023-01-03T08:37:18.002Z,7.97
2023-01-03T08:39:50.052Z,8.98
2023-01-03T08:42:23.719Z,7.90
2023-01-03T08:44:56.715Z,9.65
2023-01-03T08:47:25.999Z,8.75
2023-01-03T08:49:54.595Z,8.73
2023-01-03T08:52:23.532Z,13.82
2023-01-03T08:54:52.183Z,9.50
2023-01-03T08:57:22.285Z,7.13
2023-01-03T08:59:50.934Z,6.70
2023-01-03T09:02:19.878Z,6.53
2023-01-03T09:04:48.776Z,6.60
2023-01-03T09:07:18.072Z,5.13
2023-01-03T09:09:46.539Z,5.13
2023-01-03T09:12:16.025Z,5.30
2023-01-03T09:14:46.508Z,6.38
2023-01-03T09:17:15.385Z,6.90
2023-01-03T09:19:44.338Z,7.00
2023-01-03T09:22:14.767Z,7.53
2023-01-03T09:24:43.282Z,5.63
2023-01-03T09:27:12.013Z,5.50
2023-01-03T09:29:40.560Z,7.28
2023-01-03T09:32:11.486Z,4.95
2023-01-03T09:34:39.948Z,5.75
2023-01-03T09:37:08.866Z,6.32
2023-01-03T09:39:37.330Z,21.48
2023-01-03T09:42:24.122Z,6.80
2023-01-03T09:44:53.247Z,4.45
2023-01-03T09:47:25.923Z,5.03
2023-01-03T09:53:02.987Z,4.85
2023-01-03T09:55:54.600Z,4.45
2023-01-03T09:58:41.113Z,3.90
2023-01-03T10:01:43.266Z,4.25
2023-01-03T10:04:37.916Z,4.18
2023-01-03T10:07:17.017Z,4.78
2023-01-03T10:09:53.575Z,5.53
2023-01-03T10:12:27.972Z,4.70
2023-01-03T10:15:13.545Z,5.07
2023-01-03T10:17:47.404Z,5.32
2023-01-03T10:20:31.043Z,6.18
2023-01-03T10:23:02.894Z,4.75
2023-01-03T10:25:32.985Z,4.82
2023-01-03T10:28:05.744Z,5.00
2023-01-03T10:30:50.669Z,4.78
2023-01-03T10:33:30.892Z,5.20
2023-01-03T10:36:01.889Z,6.70
2023-01-03T10:38:31.399Z,21.40
2023-01-03T10:41:03.523Z,9.65
2023-01-03T10:43:33.868Z,10.27
2023-01-03T10:46:05.221Z,6.30
2023-01-03T10:51:35.719Z,5.03
2023-01-03T10:54:13.298Z,5.85
2023-01-03T10:56:42.065Z,4.13
2023-01-03T10:59:16.632Z,5.90
2023-01-03T11:01:59.080Z,7.10
2023-01-03T11:04:51.546Z,6.10
2023-01-03T11:07:31.174Z,6.57
2023-01-03T11:10:00.525Z,6.30
2023-01-03T11:12:31.471Z,4.57
2023-01-03T11:15:01.390Z,4.35
2023-01-03T11:17:35.884Z,4.20
2023-01-03T11:20:05.539Z,3.97
2023-01-03T11:22:43.995Z,9.23
2023-01-03T11:25:37.227Z,11.48
2023-01-03T11:28:32.351Z,7.40
2023-01-03T11:34:25.413Z,6.85
2023-01-03T11:36:56.712Z,6.65
2023-01-03T11:39:47.516Z,6.93
2023-01-03T11:42:38.748Z,13.38
2023-01-03T11:45:35.324Z,7.82
2023-01-03T11:48:19.153Z,5.47
2023-01-03T11:50:59.857Z,4.78
2023-01-03T11:53:36.723Z,5.90
2023-01-03T11:56:20.536Z,7.53
2023-01-03T11:59:14.872Z,6.93
2023-01-03T12:01:55.717Z,5.07
2023-01-03T12:04:32.262Z,9.80
2023-01-03T12:07:47.076Z,4.55
2023-01-03T12:10:16.506Z,6.38
2023-01-03T12:13:13.612Z,5.93
2023-01-03T12:15:47.139Z,6.25
2023-01-03T12:18:28.367Z,6.93
2023-01-03T12:21:05.052Z,6.28
2023-01-03T12:23:48.067Z,5.57
2023-01-03T12:31:49.777Z,5.18
2023-01-03T12:34:26.121Z,5.10
2023-01-03T12:37:01.905Z,5.82
2023-01-03T12:39:41.925Z,6.88
2023-01-03T12:42:24.014Z,5.00
2023-01-03T12:45:05.010Z,6.20
2023-01-03T12:47:40.770Z,6.17
2023-01-03T12:53:19.351Z,6.15
2023-01-03T12:56:07.878Z,5.43
2023-01-03T12:58:52.248Z,6.10
2023-01-03T13:01:34.525Z,16.48
2023-01-03T13:04:15.286Z,9.65
2023-01-03T13:07:23.058Z,6.90
2023-01-03T13:10:04.411Z,6.10
2023-01-03T13:12:37.303Z,6.63
2023-01-03T13:15:20.860Z,5.35
2023-01-03T13:17:52.300Z,4.75
2023-01-03T13:20:46.255Z,6.05
2023-01-03T13:23:34.804Z,7.53
2023-01-03T13:26:23.048Z,9.25
2023-01-03T13:28:54.486Z,6.50
2023-01-03T13:31:40.502Z,5.85
2023-01-03T13:34:52.427Z,12.93
2023-01-03T13:37:33.775Z,8.68
2023-01-03T13:41:15.491Z,8.40
2023-01-03T13:43:24.895Z,7.18
2023-01-03T13:45:58.825Z,7.70
2023-01-03T13:48:34.595Z,8.30
2023-01-03T13:55:19.692Z,7.50
2023-01-03T13:58:00.768Z,6.57
2023-01-03T14:00:48.950Z,9.02
2023-01-03T14:03:57.205Z,8.75
2023-01-03T14:07:00.230Z,7.93
2023-01-03T14:10:05.416Z,10.20
2023-01-03T14:13:12.150Z,6.00
2023-01-03T14:15:51.843Z,12.35
2023-01-03T14:18:25.380Z,10.35
2023-01-03T14:21:02.686Z,13.20
2023-01-03T14:26:26.831Z,7.88
2023-01-03T14:28:59.592Z,8.52
2023-01-03T14:31:28.951Z,7.90
2023-01-03T14:34:00.056Z,7.00
2023-01-03T14:36:29.094Z,7.57
2023-01-03T14:38:59.988Z,11.43
2023-01-03T14:41:32.693Z,10.27
2023-01-03T14:44:08.015Z,9.43
2023-01-03T14:46:41.033Z,11.02
2023-01-03T14:49:37.239Z,10.68
2023-01-03T14:52:11.049Z,11.88
2023-01-03T14:55:18.484Z,14.00
2023-01-03T14:57:53.209Z,13.95
2023-01-03T15:00:32.986Z,11.63
2023-01-03T15:06:11.228Z,11.90
2023-01-03T15:08:53.425Z,11.48
2023-01-03T15:11:30.668Z,12.82
2023-01-03T15:17:12.335Z,14.73
2023-01-03T15:19:44.091Z,18.33
2023-01-03T15:22:19.930Z,17.83
2023-01-03T15:24:54.654Z,17.15
2023-01-03T15:27:45.668Z,18.90
2023-01-03T15:33:39.664Z,21.02
2023-01-03T15:36:26.813Z,21.60
2023-01-03T15:39:16.903Z,20.23
2023-01-03T15:42:35.031Z,19.75
2023-01-03T15:44:59.107Z,23.20
2023-01-03T15:47:33.732Z,18.52
2023-01-03T15:57:13.611Z,18.38
2023-01-03T16:03:01.057Z,36.70
2023-01-03T16:12:17.189Z,14.88
2023-01-03T16:14:51.129Z,21.60
2023-01-03T16:17:30.799Z,18.63
2023-01-03T16:20:03.263Z,20.02
2023-01-03T16:22:40.332Z,18.38
2023-01-03T16:25:17.181Z,21.35
2023-01-03T16:28:00.202Z,23.17
2023-01-03T16:30:48.446Z,22.15
2023-01-03T16:33:21.368Z,16.52
2023-01-03T16:36:05.271Z,20.92
2023-01-03T16:38:53.164Z,21.83
2023-01-03T16:41:22.823Z,21.35
2023-01-03T16:43:55.768Z,29.15
2023-01-03T16:46:31.367Z,27.52
2023-01-03T16:49:06.168Z,23.70
2023-01-03T16:51:57.968Z,21.70
2023-01-03T16:54:29.171Z,23.58
2023-01-03T16:57:01.519Z,23.95
2023-01-03T16:59:36.317Z,21.67
2023-01-03T17:02:12.220Z,21.75
2023-01-03T17:04:44.990Z,20.08
2023-01-03T17:07:23.761Z,24.55
2023-01-03T17:09:56.566Z,31.83
2023-01-03T17:12:32.602Z,41.67
2023-01-03T17:15:06.857Z,40.55
2023-01-03T17:17:37.651Z,34.22
2023-01-03T17:20:16.489Z,39.58
2023-01-03T17:22:48.335Z,36.13
2023-01-03T17:25:17.362Z,31.85
2023-01-03T17:27:49.812Z,28.65
2023-01-03T17:30:20.955Z,28.02
2023-01-03T17:32:51.085Z,28.05
2023-01-03T17:35:22.224Z,22.77
2023-01-03T17:38:24.029Z,21.42
2023-01-03T17:40:44.121Z,18.48
2023-01-03T17:43:20.277Z,21.83
2023-01-03T17:46:09.789Z,19.83
2023-01-03T17:48:58.607Z,21.83
2023-01-03T17:51:31.392Z,28.00
2023-01-03T17:54:00.678Z,23.20
2023-01-03T17:56:30.399Z,27.45
2023-01-03T17:58:59.871Z,32.83
2023-01-03T18:01:34.156Z,31.05
2023-01-03T18:04:06.552Z,30.65
2023-01-03T18:06:40.701Z,26.42
2023-01-03T18:09:17.714Z,21.20
2023-01-03T18:11:57.307Z,20.50
2023-01-03T18:14:25.960Z,21.42
2023-01-03T18:16:55.876Z,25.52
2023-01-03T18:19:28.085Z,24.13
2023-01-03T18:21:58.975Z,24.00
2023-01-03T18:24:33.312Z,28.20
2023-01-03T18:27:03.122Z,27.33
2023-01-03T18:29:32.316Z,32.00
2023-01-03T18:32:01.731Z,31.20
2023-01-03T18:34:38.136Z,25.92
2023-01-03T18:37:10.334Z,24.67
2023-01-03T18:39:40.219Z,26.27
2023-01-03T18:42:29.006Z,25.63
2023-01-03T18:45:01.959Z,29.73
2023-01-03T18:47:33.625Z,40.13
2023-01-03T18:50:05.560Z,31.63
2023-01-03T18:52:38.192Z,24.70
2023-01-03T18:55:10.145Z,23.20
2023-01-03T18:57:39.570Z,23.25
2023-01-03T19:00:13.337Z,23.13
2023-01-03T19:02:42.832Z,23.70
2023-01-03T19:05:16.073Z,24.02
2023-01-03T19:07:49.908Z,23.17
2023-01-03T19:10:23.758Z,20.88
2023-01-03T19:12:55.105Z,21.63
2023-01-03T19:15:26.463Z,20.73
2023-01-03T19:18:05.765Z,21.63
2023-01-03T19:20:40.485Z,23.65
2023-01-03T19:23:13.509Z,27.50
2023-01-03T19:25:59.606Z,26.80
2023-01-03T19:28:35.435Z,31.33
2023-01-03T19:31:05.094Z,28.50
2023-01-03T19:33:35.602Z,29.05
2023-01-03T19:36:10.660Z,28.85
2023-01-03T19:38:44.565Z,27.30
2023-01-03T19:41:17.765Z,25.27
2023-01-03T19:43:48.131Z,26.63
2023-01-03T19:46:22.035Z,27.08
2023-01-03T19:48:52.224Z,23.67
2023-01-03T19:51:23.104Z,25.10
2023-01-03T19:56:24.515Z,24.10
2023-01-03T19:58:59.263Z,23.73
2023-01-03T20:01:50.593Z,24.20
2023-01-03T20:04:21.212Z,23.40
2023-01-03T20:06:51.409Z,23.70
2023-01-03T20:09:20.598Z,24.05
2023-01-03T20:11:54.229Z,24.42
2023-01-03T20:14:24.785Z,24.83
2023-01-03T20:16:53.285Z,24.40
2023-01-03T20:19:22.419Z,23.45
2023-01-03T20:21:52.537Z,25.60
2023-01-03T20:24:23.903Z,25.08
2023-01-03T20:26:55.929Z,25.52
2023-01-03T20:29:24.633Z,23.92
2023-01-03T20:31:53.080Z,26.70
2023-01-03T20:34:21.928Z,24.17
2023-01-03T20:36:53.426Z,22.52
2023-01-03T20:39:26.856Z,24.25
2023-01-03T20:42:01.553Z,26.55
2023-01-03T20:44:32.174Z,25.17
2023-01-03T20:47:01.478Z,25.25
2023-01-03T20:49:30.316Z,24.67
2023-01-03T20:52:00.148Z,26.33
2023-01-03T20:54:28.868Z,26.50
2023-01-03T20:56:57.500Z,27.10
2023-01-03T20:59:26.290Z,24.35
2023-01-03T21:01:54.823Z,22.95
2023-01-03T21:04:23.517Z,23.27
2023-01-03T21:06:53.509Z,23.08
2023-01-03T21:09:22.936Z,21.80
2023-01-03T21:11:51.753Z,21.80
2023-01-03T21:14:22.682Z,21.63
2023-01-03T21:16:52.601Z,22.45
2023-01-03T21:19:23.180Z,23.27
2023-01-03T21:21:53.806Z,23.35
2023-01-03T21:24:26.183Z,22.17
2023-01-03T21:26:55.728Z,23.83
2023-01-03T21:29:26.336Z,24.88
2023-01-03T21:31:55.395Z,25.15
2023-01-03T21:34:24.936Z,22.65
2023-01-03T21:36:56.158Z,22.08
2023-01-03T21:39:38.462Z,23.77
2023-01-03T21:42:25.340Z,25.70
2023-01-03T21:44:58.223Z,28.42
2023-01-03T21:47:30.626Z,26.77
2023-01-03T21:50:07.590Z,29.13
2023-01-03T21:52:37.160Z,27.65
2023-01-03T21:55:10.748Z,29.05
2023-01-03T21:57:46.632Z,28.98
2023-01-03T22:00:24.009Z,29.23
2023-01-03T22:03:12.522Z,27.67
2023-01-03T22:05:49.896Z,23.75
2023-01-03T22:08:21.051Z,24.55
2023-01-03T22:10:55.850Z,28.00
2023-01-03T22:13:30.615Z,27.35
2023-01-03T22:16:12.168Z,26.23
2023-01-03T22:18:42.524Z,27.40
2023-01-03T22:21:17.103Z,27.08
2023-01-03T22:23:51.830Z,26.17
2023-01-03T22:26:34.539Z,25.40
2023-01-03T22:29:04.448Z,24.40
2023-01-03T22:31:35.332Z,24.42
2023-01-03T22:34:06.227Z,25.02
2023-01-03T22:39:03.815Z,23.35
2023-01-03T22:41:34.267Z,24.65
2023-01-03T22:44:03.443Z,24.88
2023-01-03T22:46:33.236Z,27.50
2023-01-03T22:49:04.798Z,26.08
2023-01-03T22:51:36.357Z,25.77
2023-01-03T22:54:06.622Z,24.75
2023-01-03T22:56:38.428Z,24.95
2023-01-03T22:59:07.108Z,26.27
2023-01-03T23:01:37.609Z,27.00
2023-01-03T23:04:06.858Z,27.20
2023-01-03T23:06:36.698Z,28.02
2023-01-03T23:09:05.291Z,31.02
2023-01-03T23:11:52.168Z,31.08
2023-01-03T23:14:23.558Z,31.00
2023-01-03T23:16:52.953Z,29.58
2023-01-03T23:19:22.784Z,27.27
2023-01-03T23:21:51.420Z,29.65
2023-01-03T23:24:22.539Z,27.95
2023-01-03T23:29:21.374Z,27.33
2023-01-03T23:31:50.408Z,27.30
2023-01-03T23:34:18.916Z,27.83
2023-01-03T23:36:47.711Z,27.50
2023-01-03T23:39:17.553Z,29.42
2023-01-03T23:41:46.833Z,26.77
2023-01-03T23:44:15.109Z,28.80
2023-01-03T23:46:45.215Z,31.00
2023-01-03T23:49:13.798Z,31.42
2023-01-03T23:51:42.634Z,29.50
2023-01-03T23:54:10.934Z,33.10
2023-01-03T23:56:39.749Z,31.70
2023-01-03T23:59:08.004Z,30.92
